Time;durP1;ratioP1;P1;durP2;ratioP2;P2;SDS_P1;SDS_P2;PMS_P1;PMS_P2;Temp;Humidity;BMP_temperature;BMP_pressure;BME280_temperature;BME280_humidity;BME280_pressure;Samples;Min_cycle;Max_cycle;Signal;HPM_P1;HPM_P2
2022/09/26 00:01:19;;;;;;;9.23;3.55;;;9.70;99.90;;;;;;4900881;29;20187;-90
2022/09/26 00:04:00;;;;;;;4.40;3.00;;;9.60;99.90;;;;;;4885007;29;20179;-90
2022/09/26 00:06:27;;;;;;;6.68;3.88;;;9.60;99.90;;;;;;4895301;29;20196;-91
2022/09/26 00:08:54;;;;;;;3.20;2.88;;;9.60;99.90;;;;;;4903857;29;20226;-90
2022/09/26 00:11:25;;;;;;;5.88;3.22;;;9.50;99.90;;;;;;4904019;29;20220;-91
2022/09/26 00:13:56;;;;;;;6.38;3.47;;;9.50;99.90;;;;;;4903607;29;20230;-90
2022/09/26 00:16:23;;;;;;;9.30;2.97;;;9.50;99.90;;;;;;4904044;29;20171;-90
2022/09/26 00:18:50;;;;;;;7.90;3.58;;;9.50;99.90;;;;;;4903590;29;20175;-90
2022/09/26 00:21:21;;;;;;;7.55;3.40;;;9.50;99.90;;;;;;4903504;29;20183;-89
2022/09/26 00:23:47;;;;;;;5.65;3.40;;;9.50;99.90;;;;;;4903559;29;20198;-89
2022/09/26 00:26:14;;;;;;;4.60;3.13;;;9.60;99.90;;;;;;4903777;29;20194;-89
2022/09/26 00:28:40;;;;;;;6.25;3.53;;;9.60;99.90;;;;;;4903496;29;20182;-90
2022/09/26 00:31:10;;;;;;;5.53;3.40;;;9.60;99.90;;;;;;4920254;29;20237;-90
2022/09/26 00:33:36;;;;;;;10.55;3.63;;;9.60;99.90;;;;;;4903379;29;20179;-90
2022/09/26 00:36:02;;;;;;;7.18;3.47;;;9.60;99.90;;;;;;4903310;29;20245;-89
2022/09/26 00:38:28;;;;;;;5.55;3.33;;;9.60;99.90;;;;;;4903375;29;20229;-89
2022/09/26 00:41:11;;;;;;;10.25;3.30;;;9.60;99.90;;;;;;4903221;29;20269;-89
2022/09/26 00:43:44;;;;;;;8.48;2.95;;;9.50;99.90;;;;;;4903369;29;20265;-90
2022/09/26 00:46:40;;;;;;;4.40;2.58;;;9.50;99.90;;;;;;4903269;29;20167;-89
2022/09/26 00:49:31;;;;;;;4.47;2.88;;;9.50;99.90;;;;;;4903185;29;20297;-91
2022/09/26 00:52:07;;;;;;;6.00;3.10;;;9.50;99.90;;;;;;4903018;29;20191;-90
2022/09/26 00:54:35;;;;;;;6.22;3.03;;;9.50;99.90;;;;;;4903482;29;20242;-90
2022/09/26 00:57:10;;;;;;;5.10;2.92;;;9.50;99.90;;;;;;4903034;29;20234;-90
2022/09/26 00:59:47;;;;;;;8.98;4.03;;;9.50;99.90;;;;;;4903236;29;20506;-91
2022/09/26 01:02:14;;;;;;;4.35;2.85;;;9.50;99.90;;;;;;4902984;29;20228;-90
2022/09/26 01:04:43;;;;;;;4.45;2.78;;;9.50;99.90;;;;;;4902909;29;20256;-89
2022/09/26 01:07:16;;;;;;;8.38;3.08;;;9.50;99.90;;;;;;4886426;29;20282;-89
2022/09/26 01:09:43;;;;;;;7.70;2.83;;;9.50;99.90;;;;;;4884111;29;20342;-90
2022/09/26 01:12:09;;;;;;;8.60;3.08;;;9.50;99.90;;;;;;4884079;29;20547;-90
2022/09/26 01:14:38;;;;;;;10.38;2.85;;;9.50;99.90;;;;;;4899035;29;20274;-90
2022/09/26 01:17:04;;;;;;;5.80;2.80;;;9.50;99.90;;;;;;4884012;29;20179;-90
2022/09/26 01:19:49;;;;;;;5.28;2.85;;;9.50;99.90;;;;;;4883441;29;20430;-89
2022/09/26 01:22:48;;;;;;;4.60;2.88;;;9.50;99.90;;;;;;4899430;29;20590;-89
2022/09/26 01:25:33;;;;;;;5.38;3.15;;;9.50;99.90;;;;;;4899626;29;20614;-90
2022/09/26 01:28:17;;;;;;;8.85;2.97;;;9.50;99.90;;;;;;4899534;29;20262;-90
2022/09/26 01:31:10;;;;;;;7.43;3.00;;;9.50;99.90;;;;;;4899439;29;20245;-89
2022/09/26 01:33:39;;;;;;;4.65;2.53;;;9.40;99.90;;;;;;4883890;29;20175;-91
2022/09/26 01:36:16;;;;;;;4.55;3.00;;;9.50;99.90;;;;;;4907820;29;20712;-89
2022/09/26 01:39:01;;;;;;;4.65;2.78;;;9.50;99.90;;;;;;4902597;29;20170;-91
2022/09/26 01:41:54;;;;;;;4.40;2.63;;;9.40;99.90;;;;;;4902121;29;20609;-91
2022/09/26 01:44:23;;;;;;;8.27;2.85;;;9.40;99.90;;;;;;4918058;29;20183;-88
2022/09/26 01:46:57;;;;;;;7.32;2.90;;;9.40;99.90;;;;;;4918168;29;20214;-91
2022/09/26 01:49:32;;;;;;;4.28;2.83;;;9.40;99.90;;;;;;4902364;29;20209;-89
2022/09/26 01:52:15;;;;;;;4.53;2.40;;;9.40;99.90;;;;;;4918903;29;20182;-91
2022/09/26 01:54:49;;;;;;;7.57;3.17;;;9.40;99.90;;;;;;4919085;29;20257;-90
2022/09/26 01:57:25;;;;;;;3.58;2.53;;;9.40;99.90;;;;;;4919088;29;20245;-92
2022/09/26 01:59:57;;;;;;;3.03;2.40;;;9.40;99.90;;;;;;4919015;29;20194;-90
2022/09/26 02:02:34;;;;;;;5.95;2.60;;;9.40;99.90;;;;;;4919059;29;20561;-89
2022/09/26 02:05:06;;;;;;;5.28;2.90;;;9.40;99.90;;;;;;4902056;29;20617;-90
2022/09/26 02:07:40;;;;;;;5.28;2.95;;;9.40;99.90;;;;;;4881244;29;20199;-90
2022/09/26 02:10:19;;;;;;;3.78;2.63;;;9.30;99.90;;;;;;4864705;29;20222;-91
2022/09/26 02:12:56;;;;;;;4.88;2.63;;;9.30;99.90;;;;;;4881567;29;20228;-91
2022/09/26 02:15:25;;;;;;;5.72;2.85;;;9.30;99.90;;;;;;4864758;29;20176;-90
2022/09/26 02:18:00;;;;;;;3.40;2.55;;;9.30;99.90;;;;;;4881600;29;20563;-90
2022/09/26 02:20:30;;;;;;;3.40;2.47;;;9.30;99.90;;;;;;4864896;29;20172;-90
2022/09/26 02:22:58;;;;;;;5.57;2.72;;;9.30;99.90;;;;;;4864701;29;20191;-90
2022/09/26 02:25:25;;;;;;;4.70;2.60;;;9.30;99.90;;;;;;4864804;29;20176;-91
2022/09/26 02:27:51;;;;;;;4.88;2.70;;;9.30;99.90;;;;;;4864654;29;20263;-91
2022/09/26 02:30:16;;;;;;;7.43;2.35;;;9.30;99.90;;;;;;4864420;29;20578;-91
2022/09/26 02:33:06;;;;;;;5.30;2.40;;;9.30;99.90;;;;;;4864577;29;20191;-91
2022/09/26 02:38:16;;;;;;;4.35;2.38;;;9.30;99.90;;;;;;4918994;29;20193;-90
2022/09/26 02:41:08;;;;;;;7.20;2.70;;;9.30;99.90;;;;;;4901793;29;20621;-92
2022/09/26 02:44:19;;;;;;;4.45;2.55;;;9.30;99.90;;;;;;4901776;29;20205;-90
2022/09/26 02:46:57;;;;;;;2.60;1.92;;;9.30;99.90;;;;;;4901722;29;20278;-91
2022/09/26 02:49:44;;;;;;;6.30;2.37;;;9.30;99.90;;;;;;4901754;29;20202;-91
2022/09/26 02:52:31;;;;;;;4.53;2.40;;;9.40;99.90;;;;;;4901239;29;20195;-91
2022/09/26 02:55:04;;;;;;;6.03;2.42;;;9.30;99.90;;;;;;4901914;29;20179;-91
2022/09/26 02:57:53;;;;;;;6.00;2.83;;;9.30;99.90;;;;;;4886543;29;20226;-90
2022/09/26 03:00:21;;;;;;;5.13;2.30;;;9.40;99.90;;;;;;4902203;29;20179;-91
2022/09/26 03:03:11;;;;;;;10.82;2.63;;;9.30;99.90;;;;;;4886367;29;20267;-92
2022/09/26 03:05:41;;;;;;;4.25;2.40;;;9.40;99.90;;;;;;4886482;29;20198;-89
2022/09/26 03:08:26;;;;;;;5.20;2.40;;;9.40;99.90;;;;;;4886270;29;20235;-91
2022/09/26 03:10:55;;;;;;;3.22;2.15;;;9.40;99.90;;;;;;4886499;29;20263;-90
2022/09/26 03:13:32;;;;;;;3.70;2.10;;;9.40;99.90;;;;;;4886272;29;20175;-90
2022/09/26 03:15:58;;;;;;;4.63;2.10;;;9.40;99.90;;;;;;4886245;29;20693;-91
2022/09/26 03:18:34;;;;;;;2.40;1.98;;;9.40;99.90;;;;;;4886157;29;20270;-90
2022/09/26 03:21:00;;;;;;;3.28;2.10;;;9.40;99.90;;;;;;4885832;29;20275;-89
2022/09/26 03:23:28;;;;;;;4.55;2.20;;;9.50;99.90;;;;;;4885902;29;20630;-91
2022/09/26 03:26:24;;;;;;;4.40;1.98;;;9.40;99.90;;;;;;4885906;29;20266;-90
2022/09/26 03:28:51;;;;;;;4.07;2.08;;;9.40;99.90;;;;;;4884088;29;20575;-90
2022/09/26 03:31:20;;;;;;;4.03;1.88;;;9.50;99.90;;;;;;4886058;29;20187;-90
2022/09/26 03:33:47;;;;;;;3.13;1.75;;;9.50;99.90;;;;;;4885853;29;20191;-91
2022/09/26 03:36:13;;;;;;;6.18;1.67;;;9.50;99.90;;;;;;4879228;29;20222;-89
2022/09/26 03:38:39;;;;;;;5.57;1.80;;;9.50;99.90;;;;;;4882495;29;20207;-90
2022/09/26 03:41:06;;;;;;;2.45;1.70;;;9.50;99.90;;;;;;4882654;29;20616;-90
2022/09/26 03:43:42;;;;;;;3.50;1.60;;;9.50;99.90;;;;;;4882375;29;20531;-89
2022/09/26 03:46:14;;;;;;;3.05;1.88;;;9.60;99.90;;;;;;4883943;29;20188;-90
2022/09/26 03:48:40;;;;;;;4.60;1.50;;;9.60;99.90;;;;;;4867133;29;20180;-90
2022/09/26 03:51:09;;;;;;;3.78;1.63;;;9.60;99.90;;;;;;4867272;29;20673;-90
2022/09/26 03:53:40;;;;;;;7.43;1.83;;;9.50;99.90;;;;;;4866754;29;20671;-90
2022/09/26 03:56:13;;;;;;;2.72;1.70;;;9.50;99.90;;;;;;4866816;29;20184;-90
2022/09/26 03:58:40;;;;;;;2.92;1.88;;;9.50;99.90;;;;;;4861748;29;20202;-90
2022/09/26 04:01:09;;;;;;;4.55;1.70;;;9.50;99.90;;;;;;4883505;29;20176;-89
2022/09/26 04:03:45;;;;;;;4.53;2.00;;;9.50;99.90;;;;;;4866020;29;20176;-89
2022/09/26 04:06:14;;;;;;;6.43;2.08;;;9.50;99.90;;;;;;4866532;29;20179;-89
2022/09/26 04:08:40;;;;;;;5.07;1.92;;;9.50;99.90;;;;;;4866509;29;20607;-90
2022/09/26 04:11:10;;;;;;;3.65;1.50;;;9.50;99.90;;;;;;4866740;29;20226;-89
2022/09/26 04:13:38;;;;;;;6.00;1.80;;;9.50;99.90;;;;;;4866523;29;20191;-89
2022/09/26 04:16:05;;;;;;;3.90;1.40;;;9.50;99.90;;;;;;4866677;29;20190;-89
2022/09/26 04:18:33;;;;;;;4.05;1.55;;;9.50;99.90;;;;;;4866429;29;20236;-90
2022/09/26 04:21:05;;;;;;;2.67;1.50;;;9.50;99.90;;;;;;4866352;29;20187;-89
2022/09/26 04:23:34;;;;;;;6.75;1.90;;;9.50;99.90;;;;;;4866329;29;20566;-90
2022/09/26 04:26:04;;;;;;;3.05;1.63;;;9.50;99.90;;;;;;4866518;29;20176;-90
2022/09/26 04:28:31;;;;;;;5.88;1.45;;;9.50;99.90;;;;;;4866488;29;20195;-90
2022/09/26 04:30:57;;;;;;;2.25;1.40;;;9.50;99.90;;;;;;4865792;29;20571;-89
2022/09/26 04:33:27;;;;;;;4.80;1.60;;;9.50;99.90;;;;;;4866222;29;20271;-89
2022/09/26 04:35:53;;;;;;;2.40;1.50;;;9.50;99.90;;;;;;4889283;29;20586;-89
2022/09/26 04:38:18;;;;;;;2.45;1.77;;;9.60;99.90;;;;;;4902481;29;20749;-89
2022/09/26 04:40:44;;;;;;;4.10;1.50;;;9.60;99.90;;;;;;4919247;29;20318;-89
2022/09/26 04:43:10;;;;;;;7.32;1.42;;;9.60;99.90;;;;;;4903053;29;20213;-90
2022/09/26 04:45:42;;;;;;;4.60;1.63;;;9.60;99.90;;;;;;4918611;29;20626;-89
2022/09/26 04:48:09;;;;;;;3.92;1.30;;;9.60;99.90;;;;;;4919739;29;20495;-90
2022/09/26 04:50:35;;;;;;;3.08;1.35;;;9.60;99.90;;;;;;4903032;29;20219;-90
2022/09/26 04:53:03;;;;;;;4.03;1.80;;;9.60;99.90;;;;;;4903001;29;20254;-89
2022/09/26 04:55:28;;;;;;;2.22;1.40;;;9.60;99.90;;;;;;4903066;29;20179;-91
2022/09/26 04:57:54;;;;;;;6.25;1.60;;;9.60;99.90;;;;;;4903185;29;20234;-89
2022/09/26 05:00:19;;;;;;;2.72;1.50;;;9.60;99.90;;;;;;4902897;29;20405;-91
2022/09/26 05:02:52;;;;;;;5.90;1.55;;;9.60;99.90;;;;;;4903020;29;20183;-89
2022/09/26 05:05:18;;;;;;;3.13;1.45;;;9.70;99.90;;;;;;4902954;29;20254;-89
2022/09/26 05:07:44;;;;;;;3.20;1.40;;;9.70;99.90;;;;;;4902905;29;20606;-88
2022/09/26 05:10:10;;;;;;;5.00;1.80;;;9.70;99.90;;;;;;4896434;29;20536;-90
2022/09/26 05:12:58;;;;;;;3.92;1.50;;;9.70;99.90;;;;;;4884096;29;20274;-90
2022/09/26 05:15:24;;;;;;;2.30;1.35;;;9.70;99.90;;;;;;4883343;29;20587;-88
2022/09/26 05:17:58;;;;;;;6.00;1.60;;;9.70;99.90;;;;;;4883922;29;20187;-89
2022/09/26 05:20:28;;;;;;;5.53;1.60;;;9.70;99.90;;;;;;4883808;29;20179;-90
2022/09/26 05:23:06;;;;;;;4.95;1.70;;;9.70;99.90;;;;;;4883649;29;20210;-89
2022/09/26 05:28:22;;;;;;;4.78;1.50;;;9.70;99.90;;;;;;4900854;29;20259;-89
2022/09/26 05:30:50;;;;;;;4.82;1.70;;;9.70;99.90;;;;;;4883617;29;20262;-90
2022/09/26 05:33:18;;;;;;;2.95;1.30;;;9.80;99.90;;;;;;4883581;29;20187;-88
2022/09/26 05:35:54;;;;;;;2.65;1.23;;;9.80;99.90;;;;;;4883673;29;20187;-90
2022/09/26 05:38:20;;;;;;;4.10;1.38;;;9.80;99.90;;;;;;4886795;29;20201;-89
2022/09/26 05:40:58;;;;;;;4.40;1.60;;;9.80;99.90;;;;;;4902428;29;20529;-91
2022/09/26 05:43:33;;;;;;;3.63;1.80;;;9.80;99.90;;;;;;4902453;29;20201;-90
2022/09/26 05:46:03;;;;;;;3.97;1.30;;;9.80;99.90;;;;;;4899537;29;20200;-90
2022/09/26 05:48:31;;;;;;;4.45;1.50;;;9.80;99.90;;;;;;4882442;29;20187;-88
2022/09/26 05:51:04;;;;;;;2.90;1.60;;;9.90;99.90;;;;;;4882669;29;20249;-90
2022/09/26 05:53:31;;;;;;;2.63;1.50;;;9.90;99.90;;;;;;4883052;29;20199;-88
2022/09/26 05:55:56;;;;;;;3.45;1.95;;;9.90;99.90;;;;;;4883355;29;20270;-88
2022/09/26 05:58:22;;;;;;;5.45;1.73;;;9.90;99.90;;;;;;4883408;29;20214;-88
2022/09/26 06:00:48;;;;;;;4.75;2.00;;;9.90;99.90;;;;;;4883517;29;20207;-88
2022/09/26 06:03:16;;;;;;;4.72;1.50;;;9.90;99.90;;;;;;4882812;29;20744;-88
2022/09/26 06:05:42;;;;;;;3.60;1.40;;;9.90;99.90;;;;;;4883364;29;20175;-89
2022/09/26 06:08:08;;;;;;;5.13;1.60;;;10.00;99.90;;;;;;4884843;29;20276;-89
2022/09/26 06:10:36;;;;;;;5.63;1.58;;;10.00;99.90;;;;;;4901668;29;20625;-88
2022/09/26 06:13:02;;;;;;;4.07;1.23;;;10.10;99.90;;;;;;4901793;29;20399;-90
2022/09/26 06:15:31;;;;;;;8.25;1.95;;;10.10;99.90;;;;;;4901746;29;20635;-89
2022/09/26 06:18:03;;;;;;;3.38;1.70;;;10.10;99.90;;;;;;4901858;29;20194;-90
2022/09/26 06:20:31;;;;;;;2.50;1.40;;;10.10;99.90;;;;;;4901874;29;20179;-90
2022/09/26 06:22:58;;;;;;;6.05;1.60;;;10.20;99.90;;;;;;4901741;29;20179;-91
2022/09/26 06:25:32;;;;;;;4.57;1.60;;;10.20;99.90;;;;;;4901376;29;20187;-90
2022/09/26 06:28:00;;;;;;;3.67;1.73;;;10.20;99.90;;;;;;4892448;29;20202;-90
2022/09/26 06:30:26;;;;;;;8.13;1.55;;;10.30;99.90;;;;;;4900044;29;20267;-88
2022/09/26 06:32:52;;;;;;;7.50;1.70;;;10.30;99.90;;;;;;4875374;29;20230;-88
2022/09/26 06:35:20;;;;;;;4.53;1.40;;;10.30;99.90;;;;;;4900454;29;20188;-88
2022/09/26 06:37:46;;;;;;;2.22;1.40;;;10.40;99.90;;;;;;4890403;29;20201;-89
2022/09/26 06:40:12;;;;;;;5.28;1.42;;;10.40;99.90;;;;;;4916582;29;20176;-88
2022/09/26 06:42:38;;;;;;;4.78;1.40;;;10.40;99.90;;;;;;4886340;29;20334;-87
2022/09/26 06:45:08;;;;;;;2.33;1.42;;;10.50;99.90;;;;;;4886021;29;20187;-87
2022/09/26 06:47:35;;;;;;;3.03;1.50;;;10.50;99.90;;;;;;4886621;29;20179;-90
2022/09/26 06:50:01;;;;;;;7.03;1.67;;;10.60;99.90;;;;;;4902972;29;20211;-87
2022/09/26 06:52:32;;;;;;;6.18;1.45;;;10.60;99.90;;;;;;4886106;29;20186;-86
2022/09/26 06:54:58;;;;;;;3.45;1.58;;;10.70;99.90;;;;;;4885715;29;20244;-86
2022/09/26 06:57:24;;;;;;;3.08;1.52;;;10.70;99.90;;;;;;4886327;29;20179;-86
2022/09/26 06:59:50;;;;;;;5.10;2.15;;;10.70;99.90;;;;;;4885878;29;20175;-88
2022/09/26 07:02:15;;;;;;;4.72;1.52;;;10.80;99.90;;;;;;4886197;29;20189;-87
2022/09/26 07:04:41;;;;;;;3.50;1.65;;;10.80;99.90;;;;;;4886044;29;20180;-87
2022/09/26 07:07:08;;;;;;;5.78;1.58;;;10.90;99.90;;;;;;4886121;29;20492;-86
2022/09/26 07:09:33;;;;;;;4.45;1.40;;;10.90;99.90;;;;;;4900279;29;20215;-88
2022/09/26 07:11:59;;;;;;;3.55;1.27;;;11.00;99.90;;;;;;4921433;29;20192;-88
2022/09/26 07:14:26;;;;;;;5.22;1.88;;;11.10;99.90;;;;;;4904986;29;20179;-87
2022/09/26 07:16:52;;;;;;;6.47;1.85;;;11.10;99.90;;;;;;4920823;29;20269;-88
2022/09/26 07:19:18;;;;;;;6.95;1.50;;;11.20;99.90;;;;;;4905304;29;20193;-87
2022/09/26 07:21:45;;;;;;;5.60;1.67;;;11.20;99.90;;;;;;4920706;29;20179;-87
2022/09/26 07:24:13;;;;;;;3.90;1.55;;;11.20;99.90;;;;;;4904785;29;20190;-88
2022/09/26 07:26:42;;;;;;;4.18;1.55;;;11.30;99.90;;;;;;4905048;29;20178;-90
2022/09/26 07:29:08;;;;;;;5.30;1.60;;;11.30;99.90;;;;;;4904734;29;20609;-87
2022/09/26 07:31:35;;;;;;;5.43;1.73;;;11.30;99.90;;;;;;4904946;29;20277;-87
2022/09/26 07:34:02;;;;;;;5.32;1.67;;;11.30;99.90;;;;;;4905027;29;20183;-88
2022/09/26 07:36:29;;;;;;;6.20;1.67;;;11.30;99.90;;;;;;4921794;29;20159;-87
2022/09/26 07:38:55;;;;;;;5.50;1.80;;;11.30;99.90;;;;;;4903533;29;20206;-86
2022/09/26 07:41:21;;;;;;;5.10;1.55;;;11.30;99.90;;;;;;4904866;29;20626;-86
2022/09/26 07:43:47;;;;;;;3.42;1.48;;;11.30;99.90;;;;;;4921934;29;20175;-88
2022/09/26 07:51:42;;;;;;;6.90;2.10;;;11.40;99.90;;;;;;4921252;29;20190;-89
2022/09/26 07:54:08;;;;;;;6.18;1.60;;;11.40;99.90;;;;;;4904765;29;20186;-87
2022/09/26 07:56:33;;;;;;;3.63;1.50;;;11.50;99.90;;;;;;4905653;29;20265;-89
2022/09/26 07:59:02;;;;;;;4.55;1.83;;;11.60;99.90;;;;;;4922713;29;20258;-86
2022/09/26 08:01:28;;;;;;;3.20;1.63;;;11.70;99.90;;;;;;4904528;29;20233;-88
2022/09/26 08:03:57;;;;;;;3.42;1.65;;;11.80;99.90;;;;;;4903808;29;20181;-86
2022/09/26 08:06:26;;;;;;;7.75;1.88;;;11.80;99.90;;;;;;4904164;29;20205;-87
2022/09/26 08:08:53;;;;;;;4.15;1.80;;;11.80;99.90;;;;;;4919918;29;20190;-87
2022/09/26 08:11:19;;;;;;;7.85;1.70;;;11.80;99.90;;;;;;4904193;29;20218;-88
2022/09/26 08:13:46;;;;;;;4.10;1.90;;;11.80;99.90;;;;;;4904113;29;20233;-88
2022/09/26 08:16:21;;;;;;;3.60;1.60;;;11.90;99.90;;;;;;4904132;29;20637;-89
2022/09/26 08:18:50;;;;;;;7.20;1.90;;;11.90;99.90;;;;;;4903863;29;20178;-87
2022/09/26 08:21:16;;;;;;;5.63;1.58;;;11.90;99.90;;;;;;4921054;29;20210;-90
2022/09/26 08:23:43;;;;;;;4.18;1.70;;;11.90;99.90;;;;;;4903632;29;20187;-87
2022/09/26 08:26:14;;;;;;;4.93;1.95;;;12.00;99.90;;;;;;4903830;29;20178;-88
2022/09/26 08:28:41;;;;;;;7.28;1.98;;;12.00;99.90;;;;;;4903698;29;20174;-89
2022/09/26 08:31:07;;;;;;;3.50;1.80;;;12.00;99.90;;;;;;4903407;29;20681;-89
2022/09/26 08:33:34;;;;;;;3.05;1.58;;;12.10;99.90;;;;;;4903604;29;20193;-87
2022/09/26 08:36:09;;;;;;;1.88;1.67;;;12.10;99.90;;;;;;4903506;29;20270;-88
2022/09/26 08:38:35;;;;;;;6.40;2.00;;;12.10;99.90;;;;;;4903319;29;20320;-88
2022/09/26 08:41:20;;;;;;;9.55;2.50;;;12.10;99.90;;;;;;4903521;29;20689;-88
2022/09/26 08:44:02;;;;;;;3.42;1.85;;;12.20;99.90;;;;;;4919331;29;20521;-87
2022/09/26 08:47:01;;;;;;;5.22;2.03;;;12.30;99.90;;;;;;4904093;29;20265;-87
2022/09/26 08:49:43;;;;;;;4.35;2.10;;;12.30;99.90;;;;;;4903820;29;20207;-88
2022/09/26 08:52:34;;;;;;;7.90;2.28;;;12.40;99.90;;;;;;4904852;29;20215;-89
2022/09/26 08:55:18;;;;;;;6.28;1.77;;;12.40;99.90;;;;;;4903030;29;20262;-87
2022/09/26 08:57:59;;;;;;;4.63;1.88;;;12.30;99.90;;;;;;4903178;29;20203;-87
2022/09/26 09:00:27;;;;;;;4.88;2.03;;;12.30;99.90;;;;;;4903421;29;20204;-86
2022/09/26 09:03:24;;;;;;;4.35;1.77;;;12.30;99.90;;;;;;4903427;29;20246;-88
2022/09/26 09:06:12;;;;;;;4.45;1.90;;;12.30;99.90;;;;;;4919503;29;20175;-87
2022/09/26 09:08:46;;;;;;;5.50;1.80;;;12.30;99.90;;;;;;4902429;29;20269;-87
2022/09/26 09:11:40;;;;;;;4.97;2.10;;;12.40;99.90;;;;;;4918198;29;20669;-87
2022/09/26 09:14:27;;;;;;;4.97;1.73;;;12.40;99.90;;;;;;4918308;29;20182;-88
2022/09/26 09:17:17;;;;;;;4.90;2.10;;;12.50;99.90;;;;;;4918569;29;20211;-87
2022/09/26 09:20:02;;;;;;;5.10;2.15;;;12.60;99.90;;;;;;4918135;29;20213;-87
2022/09/26 09:22:47;;;;;;;3.90;1.80;;;12.70;99.90;;;;;;4908260;29;20179;-92
2022/09/26 09:25:18;;;;;;;3.50;1.80;;;12.80;99.90;;;;;;4898909;29;20649;-87
2022/09/26 09:28:26;;;;;;;2.75;1.60;;;12.90;99.90;;;;;;4898996;29;20231;-86
2022/09/26 09:31:05;;;;;;;2.92;1.52;;;12.90;99.90;;;;;;4873205;29;20238;-89
2022/09/26 09:33:32;;;;;;;2.20;1.60;;;13.00;99.90;;;;;;4898872;29;20183;-87
2022/09/26 09:36:09;;;;;;;2.92;1.58;;;13.00;99.90;;;;;;4883359;29;20183;-86
2022/09/26 09:38:38;;;;;;;4.15;1.52;;;13.00;99.90;;;;;;4882056;29;20189;-87
2022/09/26 09:41:16;;;;;;;2.70;1.80;;;13.20;99.90;;;;;;4883696;29;20214;-88
2022/09/26 09:44:01;;;;;;;8.90;1.85;;;13.40;99.90;;;;;;4883973;29;20615;-87
2022/09/26 09:46:34;;;;;;;3.88;1.40;;;13.50;99.90;;;;;;4881932;29;20183;-88
2022/09/26 09:49:09;;;;;;;3.30;1.65;;;13.60;99.90;;;;;;4883253;29;20187;-88
2022/09/26 09:51:40;;;;;;;3.92;1.40;;;13.70;99.90;;;;;;4873983;29;20199;-88
2022/09/26 09:54:25;;;;;;;2.75;1.52;;;13.80;99.90;;;;;;4879777;29;20184;-87
2022/09/26 09:57:35;;;;;;;4.00;1.42;;;13.80;99.90;;;;;;4864676;29;20183;-85
2022/09/26 10:00:21;;;;;;;3.20;1.70;;;13.80;99.90;;;;;;4887590;29;20186;-89
2022/09/26 10:03:03;;;;;;;5.22;1.75;;;13.80;99.90;;;;;;4877180;29;20186;-87
2022/09/26 10:05:42;;;;;;;6.60;1.55;;;13.80;99.90;;;;;;4877943;29;20614;-87
2022/09/26 10:08:33;;;;;;;5.30;1.30;;;13.90;99.90;;;;;;4883094;29;20285;-88
2022/09/26 10:11:11;;;;;;;4.05;1.27;;;14.00;99.90;;;;;;4898894;29;20219;-88
2022/09/26 10:13:41;;;;;;;5.72;1.38;;;13.90;99.90;;;;;;4882913;29;20278;-89
2022/09/26 10:16:15;;;;;;;1.90;1.20;;;13.90;99.90;;;;;;4882952;29;20226;-87
2022/09/26 10:19:05;;;;;;;2.72;1.13;;;13.80;99.90;;;;;;4882890;29;20179;-87
2022/09/26 10:21:40;;;;;;;3.95;1.30;;;13.90;99.90;;;;;;4845983;29;20189;-89
2022/09/26 10:24:37;;;;;;;3.20;1.55;;;13.90;99.90;;;;;;4845733;29;20561;-88
2022/09/26 10:27:36;;;;;;;3.35;1.30;;;13.90;99.90;;;;;;4860404;29;20223;-87
2022/09/26 10:30:24;;;;;;;3.47;1.20;;;14.00;99.90;;;;;;4866961;29;20218;-91
2022/09/26 10:32:53;;;;;;;2.05;1.10;;;14.10;99.90;;;;;;4916705;29;20182;-89
2022/09/26 10:35:39;;;;;;;2.92;1.10;;;14.10;99.90;;;;;;4901484;29;20199;-90
2022/09/26 10:38:19;;;;;;;3.88;1.17;;;14.20;99.90;;;;;;4917301;29;20175;-88
2022/09/26 10:40:58;;;;;;;3.15;1.30;;;14.20;99.90;;;;;;4901821;29;20235;-91
2022/09/26 10:43:36;;;;;;;4.07;1.20;;;14.30;99.90;;;;;;4899053;29;20201;-90
2022/09/26 10:46:02;;;;;;;3.88;1.35;;;14.50;99.90;;;;;;4882888;29;20172;-93
2022/09/26 10:48:50;;;;;;;4.95;1.17;;;14.50;99.90;;;;;;4899902;29;20176;-90
2022/09/26 10:51:30;;;;;;;4.60;1.00;;;14.60;99.90;;;;;;4899919;29;20203;-88
2022/09/26 10:54:10;;;;;;;3.83;1.00;;;14.40;99.90;;;;;;4882821;29;20183;-90
2022/09/26 10:56:42;;;;;;;4.18;0.85;;;14.40;99.90;;;;;;4882886;29;20235;-91
2022/09/26 10:59:12;;;;;;;1.13;0.90;;;14.30;99.90;;;;;;4883090;29;20191;-92
2022/09/26 11:01:42;;;;;;;2.58;1.30;;;14.40;99.90;;;;;;4883340;29;20179;-90
2022/09/26 11:07:09;;;;;;;1.75;1.10;;;14.50;99.90;;;;;;4901732;29;20178;-87
2022/09/26 11:09:37;;;;;;;2.92;1.10;;;14.40;99.90;;;;;;4918024;29;20210;-91
2022/09/26 11:12:29;;;;;;;1.70;1.20;;;14.40;99.90;;;;;;4901958;29;20262;-90
2022/09/26 11:14:58;;;;;;;2.00;1.23;;;14.30;99.90;;;;;;4895376;29;20198;-91
2022/09/26 11:17:48;;;;;;;1.63;1.00;;;14.40;99.90;;;;;;4921711;29;20257;-89
2022/09/26 11:20:31;;;;;;;3.42;1.23;;;14.50;99.90;;;;;;4899284;29;20185;-93
2022/09/26 11:23:11;;;;;;;5.43;1.38;;;14.70;99.90;;;;;;4902982;29;20202;-95
2022/09/26 11:25:56;;;;;;;2.78;1.00;;;14.60;99.90;;;;;;4901526;29;20487;-89
2022/09/26 11:28:49;;;;;;;2.80;1.00;;;14.60;99.90;;;;;;4887997;29;20259;-94
2022/09/26 11:31:34;;;;;;;5.07;1.33;;;14.30;99.90;;;;;;4867223;29;20224;-93
2022/09/26 11:34:03;;;;;;;2.08;1.00;;;14.20;99.90;;;;;;4906350;29;20237;-92
2022/09/26 11:36:48;;;;;;;2.22;1.10;;;14.00;99.90;;;;;;4904550;29;20194;-92
2022/09/26 11:39:33;;;;;;;4.57;1.20;;;13.90;99.90;;;;;;4905812;29;20271;-91
2022/09/26 11:42:14;;;;;;;1.55;1.00;;;13.80;99.90;;;;;;4882441;29;20176;-91
2022/09/26 11:44:54;;;;;;;2.20;1.00;;;13.80;99.90;;;;;;4867563;29;20204;-89
2022/09/26 11:47:42;;;;;;;4.07;1.00;;;13.90;99.90;;;;;;4866985;29;20619;-93
2022/09/26 11:50:39;;;;;;;2.30;0.90;;;14.00;99.90;;;;;;4895432;29;20218;-93
2022/09/26 11:53:14;;;;;;;1.70;1.00;;;14.10;99.90;;;;;;4867064;29;20335;-91
2022/09/26 11:56:00;;;;;;;3.20;1.20;;;14.20;99.90;;;;;;4877859;29;20187;-91
2022/09/26 11:58:49;;;;;;;6.15;1.27;;;14.30;99.90;;;;;;4885457;29;20183;-89
2022/09/26 12:01:34;;;;;;;2.60;1.10;;;14.40;99.90;;;;;;4896837;29;20182;-95
2022/09/26 12:04:23;;;;;;;2.78;1.10;;;14.60;99.90;;;;;;4885247;29;20630;-94
2022/09/26 12:07:10;;;;;;;3.58;1.10;;;14.70;99.90;;;;;;4883018;29;20176;-91
2022/09/26 12:09:46;;;;;;;5.88;1.27;;;14.80;99.90;;;;;;4897290;29;20211;-90
2022/09/26 12:12:31;;;;;;;4.10;1.33;;;14.90;99.90;;;;;;4901791;29;20187;-94
2022/09/26 12:14:56;;;;;;;1.20;1.10;;;14.90;99.90;;;;;;4901431;29;20172;-93
2022/09/26 12:18:11;;;;;;;2.55;1.10;;;14.80;99.90;;;;;;4901646;29;20186;-91
2022/09/26 12:20:47;;;;;;;1.67;0.90;;;14.80;99.90;;;;;;4902004;29;20231;-93
2022/09/26 12:23:28;;;;;;;2.75;1.20;;;14.80;99.90;;;;;;4870700;29;20186;-90
2022/09/26 12:26:16;;;;;;;5.80;1.50;;;14.80;99.90;;;;;;4900940;29;20179;-91
2022/09/26 12:29:19;;;;;;;2.85;1.33;;;14.80;99.90;;;;;;4885244;29;20171;-90
2022/09/26 12:32:00;;;;;;;2.80;1.20;;;14.90;99.90;;;;;;4883451;29;20180;-91
2022/09/26 12:34:43;;;;;;;1.52;1.10;;;14.90;99.90;;;;;;4867373;29;20176;-89
2022/09/26 12:37:31;;;;;;;3.38;1.30;;;14.90;99.90;;;;;;4867133;29;20179;-92
2022/09/26 12:40:09;;;;;;;1.77;1.10;;;14.80;99.90;;;;;;4882689;29;20253;-89
2022/09/26 12:43:00;;;;;;;3.85;1.30;;;14.80;99.90;;;;;;4881913;29;20203;-89
2022/09/26 12:45:34;;;;;;;4.18;1.38;;;14.80;99.90;;;;;;4881950;29;20188;-89
2022/09/26 12:48:36;;;;;;;2.28;0.80;;;14.80;99.90;;;;;;4884281;29;20172;-92
2022/09/26 12:51:23;;;;;;;2.17;1.17;;;14.80;99.90;;;;;;4883936;29;20261;-95
2022/09/26 12:54:11;;;;;;;2.22;0.98;;;14.80;99.90;;;;;;4866724;29;20168;-95
2022/09/26 12:57:16;;;;;;;4.60;1.00;;;14.70;99.90;;;;;;4881122;29;20528;-90
2022/09/26 13:00:15;;;;;;;1.45;0.93;;;14.60;99.90;;;;;;4881114;29;20194;-91
2022/09/26 13:03:00;;;;;;;5.18;1.10;;;14.60;99.90;;;;;;4880970;29;20569;-92
2022/09/26 13:05:35;;;;;;;1.35;0.82;;;14.50;99.90;;;;;;4880950;29;20184;-89
2022/09/26 13:08:23;;;;;;;1.70;1.00;;;14.50;99.90;;;;;;4882260;29;20199;-89
2022/09/26 13:11:23;;;;;;;2.53;0.93;;;14.40;99.90;;;;;;4865614;29;20359;-94
2022/09/26 13:14:15;;;;;;;5.15;0.98;;;14.40;99.90;;;;;;4881217;29;20191;-94
2022/09/26 13:17:08;;;;;;;2.92;1.20;;;14.30;99.90;;;;;;4880893;29;20644;-89
2022/09/26 13:19:53;;;;;;;2.70;1.15;;;14.20;99.90;;;;;;4882095;29;20164;-93
2022/09/26 13:22:31;;;;;;;2.38;1.00;;;14.10;99.90;;;;;;4882924;29;20235;-95
2022/09/26 13:25:06;;;;;;;5.55;1.42;;;14.10;99.90;;;;;;4865558;29;20195;-91
2022/09/26 13:27:47;;;;;;;5.68;1.20;;;14.00;99.90;;;;;;4880992;29;20176;-93
2022/09/26 13:30:17;;;;;;;4.72;1.08;;;14.00;99.90;;;;;;4890165;29;20245;-89
2022/09/26 13:33:09;;;;;;;1.85;1.08;;;14.10;99.90;;;;;;4899038;29;20626;-93
2022/09/26 13:35:38;;;;;;;3.50;1.20;;;14.10;99.90;;;;;;4880906;29;20202;-91
2022/09/26 13:38:17;;;;;;;2.22;0.95;;;14.10;99.90;;;;;;4899817;29;20190;-92
2022/09/26 13:40:51;;;;;;;4.20;1.15;;;14.10;99.90;;;;;;4920564;29;20170;-93
2022/09/26 13:44:00;;;;;;;3.42;1.35;;;14.00;99.90;;;;;;4920454;29;20201;-95
2022/09/26 13:47:04;;;;;;;3.63;1.08;;;14.00;99.90;;;;;;4895424;29;20277;-90